Union, KY

12:19 AM EST on December 25, 2014 (GMT -0500)
Redstone Village | Change Station
CLOSE
Current Station
Personal Weather Station
Location: Union, KY
Elevation: 860 ft
Nearby Weather Stations

Elev 860 ft 38.93 °N, 84.69 °W | Updated 34 seconds ago

Overcast
Overcast
38.8 °F
Feels Like 31 °F
N
13.0
Wind Variable Wind from West
Gusts 13.0 mph

Today
High -- | Low -- °F
--% Chance of Precip.
Yesterday
High -- | Low -- °F
Precip. -- in
7:55 AM 5:22 PM
Waxing Crescent, 13% visible
Pressure 29.74 in
Visibility 10.0 miles
Clouds Mostly Cloudy 1400 ft
Overcast 2400 ft
Windchill 31 °F
Dew Point 36 °F
Humidity 88%
Rainfall 0.00 in
Snow Depth Not available.
UV 0 out of 12
Pollen .10 out of 12
Air Quality Not available.
Flu Activity Not available.
METAR KCVG 250452Z 23006G15KT 10SM BKN014 OVC024 04/01 A2974 RMK AO2 SLP070 T00390006 401390039

More Conditions Fewer Conditions

Pressure 29.74 in
Visibility 10.0 miles
Clouds Mostly Cloudy 1400 ft
Overcast 2400 ft
Windchill 31 °F
Dew Point 36 °F
Humidity 88%
Rainfall 0.00 in
Snow Depth Not available.
UV 0 out of 12
Pollen .10 out of 12
Air Quality Not available.
Flu Activity Not available.
METAR KCVG 250452Z 23006G15KT 10SM BKN014 OVC024 04/01 A2974 RMK AO2 SLP070 T00390006 401390039

More Conditions Fewer Conditions

10-Day Weather Forecast

Almanac

Astronomy

Dec. 25, 2014 Rise Set
Actual Time
Civil Twilight
Nautical Twilight
Astronomical Twilight
Moon
Length of Visible Light
Length of Day
Tomorrow will be .
, % of the Moon is Illuminated

Today's Extremes

State Highs State Lows

Community

WunderPhotos

Upload Photos

1,780,244 photos uploaded!

WunderBlogs® & News

Nearby

Air Quality

  Air Quality AQ Index Pollutant
Not available.

Snow Depth

Station Depth Elevation

Earthquake Activity

City Distance Mag. Time & Date
Minimum magnitude displayed is 2.5.

Coastal Water Temperatures

Place Temperature

Nearby Weather Stations